Time,TemperatureF,DewpointF,PressureIn,WindDirection,WindDirectionDegrees,WindSpeedMPH,WindSpeedGustMPH,Humidity,HourlyPrecipIn,Conditions,Clouds,dailyrainin,SoftwareType,DateUTC
2013-02-24 00:00:00,40.1,36.0,30.37,SSE,153,0.0,4.0,85,0.00,,---,0.00,VWS V14.01,2013-02-24 08:00:00,
2013-02-24 00:05:00,40.1,35.7,30.37,ESE,119,3.0,5.0,84,0.00,,---,0.00,VWS V14.01,2013-02-24 08:05:00,
2013-02-24 00:10:00,40.1,35.7,30.37,SSE,162,1.0,2.0,84,0.00,,---,0.00,VWS V14.01,2013-02-24 08:10:00,
2013-02-24 00:15:00,40.1,35.7,30.37,SE,124,0.0,2.0,84,0.00,,---,0.00,VWS V14.01,2013-02-24 08:15:00,
2013-02-24 00:20:00,40.1,35.7,30.37,SSW,200,0.0,6.0,84,0.00,,---,0.00,VWS V14.01,2013-02-24 08:20:00,
2013-02-24 00:25:00,40.2,35.5,30.38,ESE,123,2.0,6.0,83,0.00,,---,0.00,VWS V14.01,2013-02-24 08:25:00,
2013-02-24 00:30:00,40.2,35.5,30.37,SE,140,2.0,5.0,83,0.00,,---,0.00,VWS V14.01,2013-02-24 08:30:00,
2013-02-24 00:35:00,40.2,35.5,30.37,South,189,1.0,6.0,83,0.00,,---,0.00,VWS V14.01,2013-02-24 08:35:00,
2013-02-24 00:40:00,40.2,35.5,30.37,SSW,195,1.0,4.0,83,0.00,,---,0.00,VWS V14.01,2013-02-24 08:40:00,
2013-02-24 00:45:00,40.3,35.6,30.37,SSE,157,0.0,5.0,83,0.00,,---,0.00,VWS V14.01,2013-02-24 08:45:00,
2013-02-24 00:50:00,40.3,35.6,30.37,SSE,163,0.0,6.0,83,0.00,,---,0.00,VWS V14.01,2013-02-24 08:50:00,
2013-02-24 00:55:00,40.3,35.6,30.37,South,169,1.0,6.0,83,0.00,,---,0.00,VWS V14.01,2013-02-24 08:55:00,
2013-02-24 01:00:00,40.3,35.6,30.37,South,186,3.0,6.0,83,0.00,,---,0.00,VWS V14.01,2013-02-24 09:00:00,
2013-02-24 01:05:00,40.3,35.6,30.36,South,169,2.0,4.0,83,0.00,,---,0.00,VWS V14.01,2013-02-24 09:05:00,
2013-02-24 01:10:00,40.3,35.6,30.37,SSE,162,1.0,7.0,83,0.00,,---,0.00,VWS V14.01,2013-02-24 09:10:00,
2013-02-24 01:15:00,40.3,35.9,30.37,SSE,156,1.0,5.0,84,0.00,,---,0.00,VWS V14.01,2013-02-24 09:15:00,
2013-02-24 01:20:00,40.3,35.9,30.37,SE,144,1.0,8.0,84,0.00,,---,0.00,VWS V14.01,2013-02-24 09:20:00,
2013-02-24 01:25:00,40.4,36.0,30.37,South,182,0.0,6.0,84,0.00,,---,0.00,VWS V14.01,2013-02-24 09:25:00,
2013-02-24 01:30:00,40.4,36.0,30.37,South,185,2.0,5.0,84,0.00,,---,0.00,VWS V14.01,2013-02-24 09:30:00,
2013-02-24 01:35:00,40.4,36.0,30.37,SSE,160,3.0,4.0,84,0.00,,---,0.00,VWS V14.01,2013-02-24 09:35:00,
2013-02-24 01:40:00,40.4,36.0,30.37,SE,136,3.0,5.0,84,0.00,,---,0.00,VWS V14.01,2013-02-24 09:40:00,
2013-02-24 01:45:00,40.4,36.0,30.37,SSE,150,2.0,7.0,84,0.00,,---,0.00,VWS V14.01,2013-02-24 09:45:00,
2013-02-24 01:50:00,40.4,36.0,30.37,SE,131,1.0,6.0,84,0.00,,---,0.00,VWS V14.01,2013-02-24 09:50:00,
2013-02-24 01:55:00,40.4,36.0,30.37,SSE,151,1.0,5.0,84,0.00,,---,0.00,VWS V14.01,2013-02-24 09:55:00,
2013-02-24 02:00:00,40.6,36.5,30.37,South,178,5.0,6.0,85,0.00,,---,0.00,VWS V14.01,2013-02-24 10:00:00,
2013-02-24 02:05:00,40.6,36.5,30.37,ESE,122,1.0,6.0,85,0.00,,---,0.00,VWS V14.01,2013-02-24 10:05:00,
2013-02-24 02:10:00,40.6,36.5,30.37,SSE,168,2.0,6.0,85,0.00,,---,0.00,VWS V14.01,2013-02-24 10:10:00,
2013-02-24 02:15:00,40.7,36.5,30.37,South,179,5.0,9.0,85,0.00,,---,0.00,VWS V14.01,2013-02-24 10:15:00,
2013-02-24 02:20:00,40.7,36.5,30.37,SSW,195,2.0,9.0,85,0.00,,---,0.00,VWS V14.01,2013-02-24 10:20:00,
2013-02-24 02:25:00,40.7,36.5,30.37,SSE,150,6.0,11.0,85,0.00,,---,0.00,VWS V14.01,2013-02-24 10:25:00,
2013-02-24 02:30:00,40.8,36.7,30.37,SSW,205,6.0,11.0,85,0.00,,---,0.00,VWS V14.01,2013-02-24 10:30:00,
2013-02-24 02:32:00,40.5,36.3,30.37,SSE,167,0.0,2.0,85,0.00,,---,0.00,VWS V14.01,2013-02-24 10:32:00,
2013-02-24 02:35:00,40.8,36.7,30.37,SSE,165,4.0,9.0,85,0.00,,---,0.00,VWS V14.01,2013-02-24 10:35:00,
2013-02-24 02:37:00,40.6,36.5,30.37,South,181,1.0,2.0,85,0.00,,---,0.00,VWS V14.01,2013-02-24 10:37:00,
2013-02-24 02:40:00,40.8,36.7,30.37,SSE,157,5.0,7.0,85,0.00,,---,0.00,VWS V14.01,2013-02-24 10:40:00,
2013-02-24 02:42:00,40.6,36.5,30.37,SSW,194,3.0,6.0,85,0.00,,---,0.00,VWS V14.01,2013-02-24 10:42:00,
2013-02-24 02:45:00,40.8,36.7,30.36,SSE,158,0.0,10.0,85,0.00,,---,0.00,VWS V14.01,2013-02-24 10:45:00,
2013-02-24 02:47:00,40.6,36.5,30.37,WSW,245,0.0,10.0,85,0.00,,---,0.00,VWS V14.01,2013-02-24 10:47:00,
2013-02-24 02:50:00,40.9,36.8,30.36,SSE,161,6.0,13.0,85,0.00,,---,0.00,VWS V14.01,2013-02-24 10:50:00,
2013-02-24 02:52:00,40.6,36.5,30.37,South,169,4.0,5.0,85,0.00,,---,0.00,VWS V14.01,2013-02-24 10:52:00,
2013-02-24 02:55:00,40.9,36.8,30.37,SE,139,5.0,9.0,85,0.00,,---,0.00,VWS V14.01,2013-02-24 10:55:00,
2013-02-24 02:57:00,40.6,36.5,30.37,SE,146,4.0,5.0,85,0.00,,---,0.00,VWS V14.01,2013-02-24 10:57:00,
2013-02-24 03:00:00,40.9,36.8,30.37,SE,136,2.0,11.0,85,0.00,,---,0.00,VWS V14.01,2013-02-24 11:00:00,
2013-02-24 03:02:00,40.6,36.5,30.37,SSE,154,0.0,6.0,85,0.00,,---,0.00,VWS V14.01,2013-02-24 11:02:00,
2013-02-24 03:05:00,40.8,36.7,30.37,SSW,203,3.0,6.0,85,0.00,,---,0.00,VWS V14.01,2013-02-24 11:05:00,
2013-02-24 03:07:00,40.6,36.5,30.37,SW,223,2.0,6.0,85,0.00,,---,0.00,VWS V14.01,2013-02-24 11:07:00,
2013-02-24 03:10:00,40.8,36.7,30.36,SE,136,7.0,9.0,85,0.00,,---,0.00,VWS V14.01,2013-02-24 11:10:00,
2013-02-24 03:12:00,40.7,36.8,30.37,SSE,160,3.0,6.0,86,0.00,,---,0.00,VWS V14.01,2013-02-24 11:12:00,
2013-02-24 03:15:00,40.8,36.7,30.36,SSE,152,2.0,10.0,85,0.00,,---,0.00,VWS V14.01,2013-02-24 11:15:00,
2013-02-24 03:17:00,40.7,36.5,30.37,South,189,6.0,8.0,85,0.00,,---,0.00,VWS V14.01,2013-02-24 11:17:00,
2013-02-24 03:20:00,40.8,36.7,30.36,South,172,2.0,12.0,85,0.00,,---,0.00,VWS V14.01,2013-02-24 11:20:00,
2013-02-24 03:22:00,40.7,36.5,30.37,South,169,9.0,11.0,85,0.00,,---,0.00,VWS V14.01,2013-02-24 11:22:00,
2013-02-24 03:25:00,40.9,36.8,30.36,South,176,6.0,10.0,85,0.00,,---,0.00,VWS V14.01,2013-02-24 11:25:00,
2013-02-24 03:27:00,40.7,36.5,30.37,South,174,3.0,7.0,85,0.00,,---,0.00,VWS V14.01,2013-02-24 11:27:00,
2013-02-24 03:30:00,40.9,36.5,30.36,SSW,193,4.0,9.0,84,0.00,,---,0.00,VWS V14.01,2013-02-24 11:30:00,
2013-02-24 03:32:00,40.8,36.7,30.37,SSW,203,2.0,6.0,85,0.00,,---,0.00,VWS V14.01,2013-02-24 11:32:00,
2013-02-24 03:35:00,40.9,36.5,30.36,SSW,210,2.0,9.0,84,0.00,,---,0.00,VWS V14.01,2013-02-24 11:35:00,
2013-02-24 03:37:00,40.8,36.7,30.37,SSE,158,1.0,7.0,85,0.00,,---,0.00,VWS V14.01,2013-02-24 11:37:00,
2013-02-24 03:40:00,40.9,36.8,30.36,SE,130,4.0,7.0,85,0.00,,---,0.00,VWS V14.01,2013-02-24 11:40:00,
2013-02-24 03:42:00,40.8,36.7,30.36,SSE,165,2.0,8.0,85,0.00,,---,0.00,VWS V14.01,2013-02-24 11:42:00,
2013-02-24 03:45:00,40.9,36.5,30.36,SSW,212,3.0,7.0,84,0.00,,---,0.00,VWS V14.01,2013-02-24 11:45:00,
2013-02-24 03:47:00,40.8,36.7,30.36,SSW,203,2.0,10.0,85,0.00,,---,0.00,VWS V14.01,2013-02-24 11:47:00,
2013-02-24 03:50:00,40.9,36.5,30.36,SSE,152,2.0,8.0,84,0.00,,---,0.00,VWS V14.01,2013-02-24 11:50:00,
2013-02-24 03:52:00,40.9,36.8,30.37,SSE,162,3.0,9.0,85,0.00,,---,0.00,VWS V14.01,2013-02-24 11:52:00,
2013-02-24 03:55:00,40.9,36.5,30.36,SSE,162,5.0,7.0,84,0.00,,---,0.00,VWS V14.01,2013-02-24 11:55:00,
2013-02-24 03:57:00,40.9,36.8,30.37,SSE,162,4.0,9.0,85,0.00,,---,0.00,VWS V14.01,2013-02-24 11:57:00,
2013-02-24 04:00:00,40.9,36.5,30.36,South,174,1.0,8.0,84,0.00,,---,0.00,VWS V14.01,2013-02-24 12:00:00,
2013-02-24 04:02:00,40.9,36.8,30.37,South,188,3.0,6.0,85,0.00,,---,0.00,VWS V14.01,2013-02-24 12:02:00,
2013-02-24 04:05:00,40.9,36.5,30.36,SSE,158,1.0,8.0,84,0.00,,---,0.00,VWS V14.01,2013-02-24 12:05:00,
2013-02-24 04:07:00,40.8,36.7,30.36,SSE,157,2.0,6.0,85,0.00,,---,0.00,VWS V14.01,2013-02-24 12:07:00,
2013-02-24 04:10:00,40.9,36.5,30.36,SSE,151,3.0,10.0,84,0.00,,---,0.00,VWS V14.01,2013-02-24 12:10:00,
2013-02-24 04:12:00,40.8,36.7,30.36,SE,128,3.0,7.0,85,0.00,,---,0.00,VWS V14.01,2013-02-24 12:12:00,
2013-02-24 04:15:00,40.9,36.5,30.35,SSW,197,7.0,11.0,84,0.00,,---,0.00,VWS V14.01,2013-02-24 12:15:00,
2013-02-24 04:17:00,40.8,36.7,30.36,South,183,8.0,9.0,85,0.00,,---,0.00,VWS V14.01,2013-02-24 12:17:00,
2013-02-24 04:20:00,40.9,36.5,30.35,SSE,153,6.0,9.0,84,0.00,,---,0.00,VWS V14.01,2013-02-24 12:20:00,
2013-02-24 04:22:00,40.8,36.3,30.36,South,180,2.0,4.0,84,0.00,,---,0.00,VWS V14.01,2013-02-24 12:22:00,
2013-02-24 04:25:00,40.9,36.5,30.35,SSW,194,4.0,11.0,84,0.00,,---,0.00,VWS V14.01,2013-02-24 12:25:00,
2013-02-24 04:27:00,40.9,36.8,30.36,SE,143,6.0,7.0,85,0.00,,---,0.00,VWS V14.01,2013-02-24 12:27:00,
2013-02-24 04:30:00,41.0,36.5,30.35,SSW,195,1.0,12.0,84,0.00,,---,0.00,VWS V14.01,2013-02-24 12:30:00,
2013-02-24 04:32:00,40.9,36.5,30.36,ESE,102,4.0,9.0,84,0.00,,---,0.00,VWS V14.01,2013-02-24 12:32:00,
2013-02-24 04:35:00,41.0,36.2,30.35,South,184,1.0,10.0,83,0.00,,---,0.00,VWS V14.01,2013-02-24 12:35:00,
2013-02-24 04:37:00,40.9,36.5,30.36,South,191,3.0,4.0,84,0.00,,---,0.00,VWS V14.01,2013-02-24 12:37:00,
2013-02-24 04:40:00,41.1,36.3,30.36,South,186,6.0,8.0,83,0.00,,---,0.00,VWS V14.01,2013-02-24 12:40:00,
2013-02-24 04:42:00,40.9,36.5,30.36,SSE,150,3.0,6.0,84,0.00,,---,0.00,VWS V14.01,2013-02-24 12:42:00,
2013-02-24 04:45:00,41.1,36.3,30.35,SSW,192,6.0,9.0,83,0.00,,---,0.00,VWS V14.01,2013-02-24 12:45:00,
2013-02-24 04:47:00,40.9,36.5,30.36,SSE,166,2.0,5.0,84,0.00,,---,0.00,VWS V14.01,2013-02-24 12:47:00,
2013-02-24 04:50:00,41.1,36.3,30.35,SSE,166,8.0,11.0,83,0.00,,---,0.00,VWS V14.01,2013-02-24 12:50:00,
2013-02-24 04:52:00,40.9,36.5,30.36,South,183,4.0,5.0,84,0.00,,---,0.00,VWS V14.01,2013-02-24 12:52:00,
2013-02-24 04:55:00,41.1,36.3,30.35,South,191,4.0,11.0,83,0.00,,---,0.00,VWS V14.01,2013-02-24 12:55:00,
2013-02-24 04:57:00,40.9,36.5,30.36,SSW,207,4.0,6.0,84,0.00,,---,0.00,VWS V14.01,2013-02-24 12:57:00,
2013-02-24 05:00:00,41.1,36.0,30.35,SSW,192,6.0,10.0,82,0.00,,---,0.00,VWS V14.01,2013-02-24 13:00:00,
2013-02-24 05:02:00,40.9,36.5,30.36,South,172,3.0,7.0,84,0.00,,---,0.00,VWS V14.01,2013-02-24 13:02:00,
2013-02-24 05:05:00,41.2,36.1,30.35,SE,141,5.0,11.0,82,0.00,,---,0.00,VWS V14.01,2013-02-24 13:05:00,
2013-02-24 05:07:00,40.9,36.5,30.36,SE,142,3.0,10.0,84,0.00,,---,0.00,VWS V14.01,2013-02-24 13:07:00,
2013-02-24 05:10:00,41.2,36.1,30.35,SSE,162,3.0,11.0,82,0.00,,---,0.00,VWS V14.01,2013-02-24 13:10:00,
2013-02-24 05:12:00,40.9,36.5,30.36,SSW,195,3.0,10.0,84,0.00,,---,0.00,VWS V14.01,2013-02-24 13:12:00,
2013-02-24 05:15:00,41.2,36.1,30.35,South,185,6.0,8.0,82,0.00,,---,0.00,VWS V14.01,2013-02-24 13:15:00,
2013-02-24 05:17:00,40.9,36.5,30.35,SSE,167,7.0,7.0,84,0.00,,---,0.00,VWS V14.01,2013-02-24 13:17:00,
2013-02-24 05:20:00,41.2,36.1,30.34,SE,141,2.0,9.0,82,0.00,,---,0.00,VWS V14.01,2013-02-24 13:20:00,
2013-02-24 05:22:00,40.9,36.5,30.35,SSW,208,0.0,8.0,84,0.00,,---,0.00,VWS V14.01,2013-02-24 13:22:00,
2013-02-24 05:25:00,41.2,36.1,30.34,South,184,1.0,10.0,82,0.00,,---,0.00,VWS V14.01,2013-02-24 13:25:00,
2013-02-24 05:27:00,40.9,36.5,30.35,SSE,149,5.0,12.0,84,0.00,,---,0.00,VWS V14.01,2013-02-24 13:27:00,
2013-02-24 05:30:00,41.2,36.1,30.34,SSE,163,3.0,8.0,82,0.00,,---,0.00,VWS V14.01,2013-02-24 13:30:00,
2013-02-24 05:32:00,41.0,36.2,30.35,SSE,149,3.0,10.0,83,0.00,,---,0.00,VWS V14.01,2013-02-24 13:32:00,
2013-02-24 05:35:00,41.1,36.0,30.34,WSW,245,1.0,10.0,82,0.00,,---,0.00,VWS V14.01,2013-02-24 13:35:00,
2013-02-24 05:37:00,41.0,36.2,30.36,SSW,199,1.0,5.0,83,0.00,,---,0.00,VWS V14.01,2013-02-24 13:37:00,
2013-02-24 05:40:00,41.2,36.1,30.33,SSE,161,6.0,9.0,82,0.00,,---,0.00,VWS V14.01,2013-02-24 13:40:00,
2013-02-24 05:42:00,41.1,36.3,30.35,SSW,194,3.0,8.0,83,0.00,,---,0.00,VWS V14.01,2013-02-24 13:42:00,
2013-02-24 05:45:00,41.2,36.1,30.33,SSE,163,10.0,10.0,82,0.00,,---,0.00,VWS V14.01,2013-02-24 13:45:00,
2013-02-24 05:47:00,41.1,36.3,30.35,South,190,2.0,9.0,83,0.00,,---,0.00,VWS V14.01,2013-02-24 13:47:00,
2013-02-24 05:50:00,41.3,35.9,30.33,SSE,147,10.0,14.0,81,0.00,,---,0.00,VWS V14.01,2013-02-24 13:50:00,
2013-02-24 05:52:00,41.1,36.3,30.35,WSW,247,5.0,9.0,83,0.00,,---,0.00,VWS V14.01,2013-02-24 13:52:00,
2013-02-24 05:55:00,41.3,35.6,30.33,SSW,198,6.0,10.0,80,0.00,,---,0.00,VWS V14.01,2013-02-24 13:55:00,
2013-02-24 05:57:00,41.2,36.4,30.35,SSE,156,2.0,4.0,83,0.00,,---,0.00,VWS V14.01,2013-02-24 13:57:00,
2013-02-24 06:00:00,41.4,35.7,30.33,South,174,6.0,10.0,80,0.00,,---,0.00,VWS V14.01,2013-02-24 14:00:00,
2013-02-24 06:02:00,41.2,36.1,30.35,SE,130,5.0,9.0,82,0.00,,---,0.00,VWS V14.01,2013-02-24 14:02:00,
2013-02-24 06:05:00,41.4,35.7,30.33,SSE,155,1.0,10.0,80,0.00,,---,0.00,VWS V14.01,2013-02-24 14:05:00,
2013-02-24 06:07:00,41.2,36.1,30.34,SW,216,3.0,6.0,82,0.00,,---,0.00,VWS V14.01,2013-02-24 14:07:00,
2013-02-24 06:10:00,41.5,35.5,30.33,SSE,160,4.0,12.0,79,0.00,,---,0.00,VWS V14.01,2013-02-24 14:10:00,
2013-02-24 06:12:00,41.2,36.1,30.35,SSW,206,2.0,8.0,82,0.00,,---,0.00,VWS V14.01,2013-02-24 14:12:00,
2013-02-24 06:15:00,41.5,35.5,30.33,South,171,4.0,10.0,79,0.00,,---,0.00,VWS V14.01,2013-02-24 14:15:00,
2013-02-24 06:17:00,41.1,36.0,30.35,SSE,165,3.0,9.0,82,0.00,,---,0.00,VWS V14.01,2013-02-24 14:17:00,
2013-02-24 06:20:00,41.6,35.6,30.33,SSE,165,7.0,12.0,79,0.00,,---,0.00,VWS V14.01,2013-02-24 14:20:00,
2013-02-24 06:22:00,41.2,36.1,30.34,SSW,208,3.0,10.0,82,0.00,,---,0.00,VWS V14.01,2013-02-24 14:22:00,
2013-02-24 06:25:00,41.6,35.6,30.33,SSE,160,3.0,10.0,79,0.00,,---,0.00,VWS V14.01,2013-02-24 14:25:00,
2013-02-24 06:27:00,41.2,36.1,30.34,South,183,1.0,3.0,82,0.00,,---,0.00,VWS V14.01,2013-02-24 14:27:00,
2013-02-24 06:30:00,41.6,35.6,30.33,SSE,158,3.0,9.0,79,0.00,,---,0.00,VWS V14.01,2013-02-24 14:30:00,
2013-02-24 06:32:00,41.1,36.0,30.34,SSE,167,5.0,10.0,82,0.00,,---,0.00,VWS V14.01,2013-02-24 14:32:00,
2013-02-24 06:35:00,41.6,35.6,30.33,SSE,162,2.0,9.0,79,0.00,,---,0.00,VWS V14.01,2013-02-24 14:35:00,
2013-02-24 06:37:00,41.2,36.1,30.34,SSW,209,1.0,8.0,82,0.00,,---,0.00,VWS V14.01,2013-02-24 14:37:00,
2013-02-24 06:40:00,41.7,35.7,30.33,South,186,4.0,7.0,79,0.00,,---,0.00,VWS V14.01,2013-02-24 14:40:00,
2013-02-24 06:42:00,41.2,36.1,30.33,South,176,1.0,10.0,82,0.00,,---,0.00,VWS V14.01,2013-02-24 14:42:00,
2013-02-24 06:45:00,41.7,35.7,30.33,SSE,153,2.0,14.0,79,0.00,,---,0.00,VWS V14.01,2013-02-24 14:45:00,
2013-02-24 06:47:00,41.2,35.8,30.33,South,169,2.0,10.0,81,0.00,,---,0.00,VWS V14.01,2013-02-24 14:47:00,
2013-02-24 06:50:00,41.7,35.7,30.33,SSE,162,5.0,11.0,79,0.00,,---,0.00,VWS V14.01,2013-02-24 14:50:00,
2013-02-24 06:52:00,41.3,35.9,30.33,SE,135,2.0,10.0,81,0.00,,---,0.00,VWS V14.01,2013-02-24 14:52:00,
2013-02-24 06:55:00,41.8,35.8,30.34,SSE,150,5.0,10.0,79,0.00,,---,0.00,VWS V14.01,2013-02-24 14:55:00,
2013-02-24 06:57:00,41.3,35.6,30.33,South,172,9.0,10.0,80,0.00,,---,0.00,VWS V14.01,2013-02-24 14:57:00,
2013-02-24 07:00:00,41.8,35.8,30.33,SSE,147,4.0,11.0,79,0.00,,---,0.00,VWS V14.01,2013-02-24 15:00:00,
2013-02-24 07:02:00,41.4,35.7,30.33,West,274,1.0,10.0,80,0.00,,---,0.00,VWS V14.01,2013-02-24 15:02:00,
2013-02-24 07:05:00,41.8,36.1,30.34,SSE,160,4.0,9.0,80,0.00,,---,0.00,VWS V14.01,2013-02-24 15:05:00,
2013-02-24 07:07:00,41.4,35.7,30.33,West,264,1.0,5.0,80,0.00,,---,0.00,VWS V14.01,2013-02-24 15:07:00,
2013-02-24 07:10:00,41.7,36.0,30.33,South,179,5.0,11.0,80,0.00,,---,0.00,VWS V14.01,2013-02-24 15:10:00,
2013-02-24 07:12:00,41.5,35.5,30.33,SSE,160,5.0,6.0,79,0.00,,---,0.00,VWS V14.01,2013-02-24 15:12:00,
2013-02-24 07:15:00,41.7,36.0,30.33,SSE,161,1.0,15.0,80,0.00,,---,0.00,VWS V14.01,2013-02-24 15:15:00,
2013-02-24 07:17:00,41.5,35.5,30.33,South,178,10.0,12.0,79,0.00,,---,0.00,VWS V14.01,2013-02-24 15:17:00,
2013-02-24 07:20:00,41.8,36.1,30.33,SSE,161,6.0,9.0,80,0.00,,---,0.00,VWS V14.01,2013-02-24 15:20:00,
2013-02-24 07:22:00,41.6,35.6,30.33,SSE,160,6.0,8.0,79,0.00,,---,0.00,VWS V14.01,2013-02-24 15:22:00,
2013-02-24 07:25:00,41.9,36.2,30.33,SSW,194,4.0,9.0,80,0.00,,---,0.00,VWS V14.01,2013-02-24 15:25:00,
2013-02-24 07:27:00,41.6,35.6,30.33,ESE,120,1.0,3.0,79,0.00,,---,0.00,VWS V14.01,2013-02-24 15:27:00,
2013-02-24 07:30:00,41.9,36.2,30.33,WSW,241,1.0,10.0,80,0.00,,---,0.00,VWS V14.01,2013-02-24 15:30:00,
2013-02-24 07:32:00,41.6,35.6,30.33,SSW,194,7.0,7.0,79,0.00,,---,0.00,VWS V14.01,2013-02-24 15:32:00,
2013-02-24 07:35:00,41.9,36.2,30.33,SSE,164,6.0,12.0,80,0.00,,---,0.00,VWS V14.01,2013-02-24 15:35:00,
2013-02-24 07:37:00,41.6,35.6,30.33,South,180,2.0,4.0,79,0.00,,---,0.00,VWS V14.01,2013-02-24 15:37:00,
2013-02-24 07:40:00,42.0,36.3,30.33,SSE,162,7.0,11.0,80,0.00,,---,0.00,VWS V14.01,2013-02-24 15:40:00,
2013-02-24 07:42:00,41.7,35.7,30.34,WNW,283,2.0,6.0,79,0.00,,---,0.00,VWS V14.01,2013-02-24 15:42:00,
2013-02-24 07:45:00,42.1,36.1,30.33,SSE,149,5.0,9.0,79,0.00,,---,0.00,VWS V14.01,2013-02-24 15:45:00,
2013-02-24 07:47:00,41.7,35.7,30.33,SSW,194,6.0,9.0,79,0.00,,---,0.00,VWS V14.01,2013-02-24 15:47:00,
2013-02-24 07:50:00,42.3,35.9,30.33,South,174,14.0,14.0,78,0.00,,---,0.00,VWS V14.01,2013-02-24 15:50:00,
2013-02-24 07:52:00,41.8,35.8,30.33,South,184,4.0,10.0,79,0.00,,---,0.00,VWS V14.01,2013-02-24 15:52:00,
2013-02-24 07:55:00,42.3,35.9,30.33,South,170,9.0,14.0,78,0.00,,---,0.00,VWS V14.01,2013-02-24 15:55:00,
2013-02-24 07:57:00,41.8,35.8,30.34,SSW,192,5.0,8.0,79,0.00,,---,0.00,VWS V14.01,2013-02-24 15:57:00,
2013-02-24 08:00:00,42.4,36.0,30.33,ESE,119,3.0,9.0,78,0.00,,---,0.00,VWS V14.01,2013-02-24 16:00:00,
2013-02-24 08:02:00,41.8,35.8,30.33,WSW,243,1.0,5.0,79,0.00,,---,0.00,VWS V14.01,2013-02-24 16:02:00,
2013-02-24 08:05:00,42.6,36.2,30.33,SE,139,1.0,11.0,78,0.00,,---,0.00,VWS V14.01,2013-02-24 16:05:00,
2013-02-24 08:07:00,41.7,36.0,30.33,SE,142,6.0,7.0,80,0.00,,---,0.00,VWS V14.01,2013-02-24 16:07:00,
2013-02-24 08:10:00,42.7,36.3,30.33,SSE,167,4.0,12.0,78,0.00,,---,0.00,VWS V14.01,2013-02-24 16:10:00,
2013-02-24 08:12:00,41.7,36.0,30.33,SSE,162,15.0,15.0,80,0.00,,---,0.00,VWS V14.01,2013-02-24 16:12:00,
2013-02-24 08:15:00,42.8,36.1,30.33,South,176,9.0,13.0,77,0.00,,---,0.00,VWS V14.01,2013-02-24 16:15:00,
2013-02-24 08:17:00,41.8,36.1,30.33,SE,124,1.0,2.0,80,0.00,,---,0.00,VWS V14.01,2013-02-24 16:17:00,
2013-02-24 08:20:00,43.0,36.0,30.32,SSE,164,2.0,14.0,76,0.00,,---,0.00,VWS V14.01,2013-02-24 16:20:00,
2013-02-24 08:22:00,41.9,36.2,30.33,SE,131,2.0,9.0,80,0.00,,---,0.00,VWS V14.01,2013-02-24 16:22:00,
2013-02-24 08:25:00,43.3,36.3,30.32,SSE,166,3.0,10.0,76,0.00,,---,0.00,VWS V14.01,2013-02-24 16:25:00,
2013-02-24 08:27:00,41.9,36.2,30.33,SSW,200,7.0,10.0,80,0.00,,---,0.00,VWS V14.01,2013-02-24 16:27:00,
2013-02-24 08:30:00,44.0,36.3,30.32,SW,229,4.0,10.0,74,0.00,,---,0.00,VWS V14.01,2013-02-24 16:30:00,
2013-02-24 08:32:00,41.9,36.2,30.33,South,177,4.0,6.0,80,0.00,,---,0.00,VWS V14.01,2013-02-24 16:32:00,
2013-02-24 08:35:00,44.5,36.4,30.33,SE,144,5.0,11.0,73,0.00,,---,0.00,VWS V14.01,2013-02-24 16:35:00,
2013-02-24 08:37:00,42.0,36.3,30.33,South,188,3.0,9.0,80,0.00,,---,0.00,VWS V14.01,2013-02-24 16:37:00,
2013-02-24 08:40:00,44.8,36.3,30.32,South,190,6.0,11.0,72,0.00,,---,0.00,VWS V14.01,2013-02-24 16:40:00,
2013-02-24 08:42:00,42.0,36.3,30.33,South,177,3.0,7.0,80,0.00,,---,0.00,VWS V14.01,2013-02-24 16:42:00,
2013-02-24 08:45:00,44.7,35.9,30.32,SSE,166,7.0,12.0,71,0.00,,---,0.00,VWS V14.01,2013-02-24 16:45:00,
2013-02-24 08:47:00,42.2,36.2,30.33,South,174,5.0,8.0,79,0.00,,---,0.00,VWS V14.01,2013-02-24 16:47:00,
2013-02-24 08:50:00,44.5,35.7,30.32,South,172,4.0,15.0,71,0.00,,---,0.00,VWS V14.01,2013-02-24 16:50:00,
2013-02-24 08:52:00,42.3,35.9,30.33,SSE,167,6.0,14.0,78,0.00,,---,0.00,VWS V14.01,2013-02-24 16:52:00,
2013-02-24 08:55:00,44.4,36.0,30.32,SSW,200,6.0,11.0,72,0.00,,---,0.00,VWS V14.01,2013-02-24 16:55:00,
2013-02-24 08:57:00,42.3,35.9,30.33,South,176,7.0,9.0,78,0.00,,---,0.00,VWS V14.01,2013-02-24 16:57:00,
2013-02-24 09:00:00,44.5,36.0,30.32,SE,139,4.0,12.0,72,0.00,,---,0.00,VWS V14.01,2013-02-24 17:00:00,
2013-02-24 09:02:00,42.4,36.0,30.33,SSE,163,8.0,8.0,78,0.00,,---,0.00,VWS V14.01,2013-02-24 17:02:00,
2013-02-24 09:05:00,44.6,36.2,30.31,SSE,150,2.0,11.0,72,0.00,,---,0.00,VWS V14.01,2013-02-24 17:05:00,
2013-02-24 09:07:00,42.6,36.2,30.33,SE,144,5.0,8.0,78,0.00,,---,0.00,VWS V14.01,2013-02-24 17:07:00,
2013-02-24 09:10:00,44.8,36.0,30.31,South,177,7.0,15.0,71,0.00,,---,0.00,VWS V14.01,2013-02-24 17:10:00,
2013-02-24 09:12:00,42.7,36.0,30.32,South,174,5.0,9.0,77,0.00,,---,0.00,VWS V14.01,2013-02-24 17:12:00,
2013-02-24 09:15:00,44.8,36.3,30.31,SSE,159,4.0,12.0,72,0.00,,---,0.00,VWS V14.01,2013-02-24 17:15:00,
2013-02-24 09:17:00,42.9,36.2,30.32,SW,220,1.0,14.0,77,0.00,,---,0.00,VWS V14.01,2013-02-24 17:17:00,
2013-02-24 09:20:00,45.1,36.6,30.31,SE,140,5.0,11.0,72,0.00,,---,0.00,VWS V14.01,2013-02-24 17:20:00,
2013-02-24 09:22:00,43.1,36.1,30.32,SSE,164,3.0,8.0,76,0.00,,---,0.00,VWS V14.01,2013-02-24 17:22:00,
2013-02-24 09:25:00,45.2,36.4,30.31,SSE,154,2.0,12.0,71,0.00,,---,0.00,VWS V14.01,2013-02-24 17:25:00,
2013-02-24 09:27:00,43.4,36.0,30.33,SW,224,1.0,6.0,75,0.00,,---,0.00,VWS V14.01,2013-02-24 17:27:00,
2013-02-24 09:30:00,45.1,36.3,30.31,SSE,159,6.0,17.0,71,0.00,,---,0.00,VWS V14.01,2013-02-24 17:30:00,
2013-02-24 09:32:00,44.2,36.5,30.33,SW,217,2.0,6.0,74,0.00,,---,0.00,VWS V14.01,2013-02-24 17:32:00,
2013-02-24 09:35:00,45.2,36.7,30.31,South,174,2.0,10.0,72,0.00,,---,0.00,VWS V14.01,2013-02-24 17:35:00,
2013-02-24 09:37:00,44.5,36.4,30.33,SE,146,4.0,11.0,73,0.00,,---,0.00,VWS V14.01,2013-02-24 17:37:00,
2013-02-24 09:40:00,45.8,37.3,30.31,WSW,249,4.0,5.0,72,0.00,,---,0.00,VWS V14.01,2013-02-24 17:40:00,
2013-02-24 09:42:00,44.8,36.3,30.32,SSW,202,4.0,11.0,72,0.00,,---,0.00,VWS V14.01,2013-02-24 17:42:00,
2013-02-24 09:45:00,45.7,36.8,30.31,SSW,203,4.0,13.0,71,0.00,,---,0.00,VWS V14.01,2013-02-24 17:45:00,
2013-02-24 09:47:00,44.6,35.8,30.32,SE,142,9.0,9.0,71,0.00,,---,0.00,VWS V14.01,2013-02-24 17:47:00,
2013-02-24 09:50:00,45.6,36.8,30.31,SE,139,9.0,13.0,71,0.00,,---,0.00,VWS V14.01,2013-02-24 17:50:00,
2013-02-24 09:52:00,44.5,36.0,30.32,SE,141,4.0,6.0,72,0.00,,---,0.00,VWS V14.01,2013-02-24 17:52:00,
2013-02-24 09:55:00,45.4,36.6,30.31,SE,141,8.0,14.0,71,0.00,,---,0.00,VWS V14.01,2013-02-24 17:55:00,
2013-02-24 09:57:00,44.4,36.0,30.32,SSE,163,2.0,6.0,72,0.00,,---,0.00,VWS V14.01,2013-02-24 17:57:00,
2013-02-24 10:00:00,45.4,36.9,30.31,SW,227,2.0,12.0,72,0.00,,---,0.00,VWS V14.01,2013-02-24 18:00:00,
2013-02-24 10:02:00,44.6,36.2,30.32,SSE,158,9.0,9.0,72,0.00,,---,0.00,VWS V14.01,2013-02-24 18:02:00,
2013-02-24 10:05:00,45.6,37.1,30.30,SSE,150,2.0,11.0,72,0.00,,---,0.00,VWS V14.01,2013-02-24 18:05:00,
2013-02-24 10:07:00,44.6,36.5,30.31,SSW,199,2.0,3.0,73,0.00,,---,0.00,VWS V14.01,2013-02-24 18:07:00,
2013-02-24 10:10:00,46.1,37.6,30.30,South,185,1.0,12.0,72,0.00,,---,0.00,VWS V14.01,2013-02-24 18:10:00,
2013-02-24 10:12:00,44.7,35.9,30.31,SSE,161,7.0,11.0,71,0.00,,---,0.00,VWS V14.01,2013-02-24 18:12:00,
2013-02-24 10:15:00,46.2,37.0,30.30,SSE,154,4.0,15.0,70,0.00,,---,0.00,VWS V14.01,2013-02-24 18:15:00,
2013-02-24 10:17:00,44.9,36.4,30.31,SSE,165,5.0,9.0,72,0.00,,---,0.00,VWS V14.01,2013-02-24 18:17:00,
2013-02-24 10:20:00,46.1,36.9,30.30,South,184,6.0,13.0,70,0.00,,---,0.00,VWS V14.01,2013-02-24 18:20:00,
2013-02-24 10:22:00,45.2,36.7,30.31,SE,143,6.0,9.0,72,0.00,,---,0.00,VWS V14.01,2013-02-24 18:22:00,
2013-02-24 10:25:00,46.1,36.9,30.30,SSW,208,7.0,15.0,70,0.00,,---,0.00,VWS V14.01,2013-02-24 18:25:00,
2013-02-24 10:27:00,45.3,36.5,30.31,South,183,7.0,12.0,71,0.00,,---,0.00,VWS V14.01,2013-02-24 18:27:00,
2013-02-24 10:30:00,46.0,36.8,30.29,SSE,161,9.0,16.0,70,0.00,,---,0.00,VWS V14.01,2013-02-24 18:30:00,
2013-02-24 10:32:00,45.1,36.3,30.31,SW,222,3.0,10.0,71,0.00,,---,0.00,VWS V14.01,2013-02-24 18:32:00,
2013-02-24 10:35:00,46.0,36.8,30.29,SSE,147,6.0,18.0,70,0.00,,---,0.00,VWS V14.01,2013-02-24 18:35:00,
2013-02-24 10:37:00,45.3,36.8,30.31,SE,143,4.0,5.0,72,0.00,,---,0.00,VWS V14.01,2013-02-24 18:37:00,
2013-02-24 10:40:00,45.8,36.9,30.29,ESE,120,2.0,14.0,71,0.00,,---,0.00,VWS V14.01,2013-02-24 18:40:00,
2013-02-24 10:42:00,45.9,37.0,30.31,SSW,198,2.0,6.0,71,0.00,,---,0.00,VWS V14.01,2013-02-24 18:42:00,
2013-02-24 10:45:00,45.9,37.0,30.28,South,179,11.0,12.0,71,0.00,,---,0.00,VWS V14.01,2013-02-24 18:45:00,
2013-02-24 10:47:00,45.7,37.2,30.31,SW,235,3.0,8.0,72,0.00,,---,0.00,VWS V14.01,2013-02-24 18:47:00,
2013-02-24 10:50:00,45.9,37.0,30.28,West,267,2.0,14.0,71,0.00,,---,0.00,VWS V14.01,2013-02-24 18:50:00,
2013-02-24 10:52:00,45.6,36.8,30.31,SW,221,1.0,9.0,71,0.00,,---,0.00,VWS V14.01,2013-02-24 18:52:00,
2013-02-24 10:55:00,45.9,37.4,30.29,SW,216,3.0,14.0,72,0.00,,---,0.00,VWS V14.01,2013-02-24 18:55:00,
2013-02-24 10:57:00,45.4,36.9,30.31,South,183,5.0,8.0,72,0.00,,---,0.00,VWS V14.01,2013-02-24 18:57:00,
2013-02-24 11:00:00,45.9,37.4,30.28,SSE,165,8.0,13.0,72,0.00,,---,0.00,VWS V14.01,2013-02-24 19:00:00,
2013-02-24 11:02:00,45.5,37.4,30.30,SSE,165,6.0,11.0,73,0.00,,---,0.00,VWS V14.01,2013-02-24 19:02:00,
2013-02-24 11:05:00,45.8,37.7,30.28,SSE,153,2.0,15.0,73,0.00,,---,0.00,VWS V14.01,2013-02-24 19:05:00,
2013-02-24 11:07:00,45.7,37.2,30.30,SW,230,1.0,6.0,72,0.00,,---,0.00,VWS V14.01,2013-02-24 19:07:00,
2013-02-24 11:10:00,45.7,37.2,30.28,SSE,167,13.0,13.0,72,0.00,,---,0.00,VWS V14.01,2013-02-24 19:10:00,
2013-02-24 11:12:00,46.1,37.2,30.30,SSE,165,5.0,12.0,71,0.00,,---,0.00,VWS V14.01,2013-02-24 19:12:00,
2013-02-24 11:15:00,45.5,37.4,30.28,SSE,164,7.0,16.0,73,0.00,,---,0.00,VWS V14.01,2013-02-24 19:15:00,
2013-02-24 11:17:00,46.2,37.0,30.30,SSE,166,6.0,13.0,70,0.00,,---,0.00,VWS V14.01,2013-02-24 19:17:00,
2013-02-24 11:20:00,45.3,37.2,30.28,SSE,157,1.0,16.0,73,0.00,,---,0.00,VWS V14.01,2013-02-24 19:20:00,
2013-02-24 11:22:00,46.1,37.2,30.30,SSW,202,3.0,9.0,71,0.00,,---,0.00,VWS V14.01,2013-02-24 19:22:00,
2013-02-24 11:25:00,45.5,37.7,30.28,SSW,207,1.0,10.0,74,0.00,,---,0.00,VWS V14.01,2013-02-24 19:25:00,
2013-02-24 11:27:00,46.1,36.9,30.30,South,171,6.0,14.0,70,0.00,,---,0.00,VWS V14.01,2013-02-24 19:27:00,
2013-02-24 11:30:00,45.5,37.7,30.28,SSW,197,3.0,15.0,74,0.00,,---,0.00,VWS V14.01,2013-02-24 19:30:00,
2013-02-24 11:32:00,46.0,36.8,30.29,SSE,150,3.0,13.0,70,0.00,,---,0.00,VWS V14.01,2013-02-24 19:32:00,
2013-02-24 11:35:00,45.3,37.5,30.28,SSE,152,4.0,12.0,74,0.00,,---,0.00,VWS V14.01,2013-02-24 19:35:00,
2013-02-24 11:37:00,45.9,36.7,30.29,South,174,6.0,11.0,70,0.00,,---,0.00,VWS V14.01,2013-02-24 19:37:00,
2013-02-24 11:40:00,45.3,37.5,30.27,SSE,149,1.0,13.0,74,0.00,,---,0.00,VWS V14.01,2013-02-24 19:40:00,
2013-02-24 11:42:00,45.9,37.0,30.29,SSE,148,3.0,7.0,71,0.00,,---,0.00,VWS V14.01,2013-02-24 19:42:00,
2013-02-24 11:45:00,45.3,37.5,30.27,SSE,157,15.0,15.0,74,0.00,,---,0.00,VWS V14.01,2013-02-24 19:45:00,
2013-02-24 11:47:00,46.0,37.1,30.29,South,182,8.0,12.0,71,0.00,,---,0.00,VWS V14.01,2013-02-24 19:47:00,
2013-02-24 11:50:00,45.3,37.5,30.27,SE,124,6.0,15.0,74,0.00,,---,0.00,VWS V14.01,2013-02-24 19:50:00,
2013-02-24 11:52:00,45.9,37.0,30.28,SSE,165,13.0,14.0,71,0.00,,---,0.00,VWS V14.01,2013-02-24 19:52:00,
2013-02-24 11:55:00,45.4,37.6,30.27,South,191,10.0,12.0,74,0.00,,---,0.00,VWS V14.01,2013-02-24 19:55:00,
2013-02-24 11:57:00,45.9,37.4,30.29,SE,136,2.0,3.0,72,0.00,,---,0.00,VWS V14.01,2013-02-24 19:57:00,
2013-02-24 12:00:00,45.3,37.5,30.27,SW,222,4.0,10.0,74,0.00,,---,0.00,VWS V14.01,2013-02-24 20:00:00,
2013-02-24 12:02:00,45.9,37.4,30.28,South,178,1.0,9.0,72,0.00,,---,0.00,VWS V14.01,2013-02-24 20:02:00,
2013-02-24 12:05:00,45.3,37.5,30.26,South,191,3.0,11.0,74,0.00,,---,0.00,VWS V14.01,2013-02-24 20:05:00,
2013-02-24 12:07:00,45.8,37.7,30.28,SSW,200,4.0,7.0,73,0.00,,---,0.00,VWS V14.01,2013-02-24 20:07:00,
2013-02-24 12:10:00,45.3,37.2,30.26,South,178,4.0,10.0,73,0.00,,---,0.00,VWS V14.01,2013-02-24 20:10:00,
2013-02-24 12:12:00,45.7,37.2,30.28,South,174,6.0,16.0,72,0.00,,---,0.00,VWS V14.01,2013-02-24 20:12:00,
2013-02-24 12:15:00,45.3,37.2,30.26,South,186,6.0,16.0,73,0.00,,---,0.00,VWS V14.01,2013-02-24 20:15:00,
2013-02-24 12:17:00,45.5,37.4,30.28,South,186,4.0,16.0,73,0.00,,---,0.00,VWS V14.01,2013-02-24 20:17:00,
2013-02-24 12:20:00,45.3,36.8,30.26,SE,139,6.0,11.0,72,0.00,,---,0.00,VWS V14.01,2013-02-24 20:20:00,
2013-02-24 12:22:00,45.3,37.5,30.28,SE,139,2.0,5.0,74,0.00,,---,0.00,VWS V14.01,2013-02-24 20:22:00,
2013-02-24 12:25:00,45.4,36.6,30.26,SE,141,5.0,11.0,71,0.00,,---,0.00,VWS V14.01,2013-02-24 20:25:00,
2013-02-24 12:27:00,45.5,37.7,30.28,SE,137,4.0,8.0,74,0.00,,---,0.00,VWS V14.01,2013-02-24 20:27:00,
2013-02-24 12:30:00,45.5,36.7,30.26,SSE,147,7.0,12.0,71,0.00,,---,0.00,VWS V14.01,2013-02-24 20:30:00,
2013-02-24 12:32:00,45.5,37.7,30.28,WSW,255,4.0,5.0,74,0.00,,---,0.00,VWS V14.01,2013-02-24 20:32:00,
2013-02-24 12:35:00,45.7,37.2,30.26,ESE,119,3.0,10.0,72,0.00,,---,0.00,VWS V14.01,2013-02-24 20:35:00,
2013-02-24 12:37:00,45.3,37.5,30.27,SSW,213,6.0,12.0,74,0.00,,---,0.00,VWS V14.01,2013-02-24 20:37:00,
2013-02-24 12:40:00,45.9,36.7,30.25,SSW,193,6.0,12.0,70,0.00,,---,0.00,VWS V14.01,2013-02-24 20:40:00,
2013-02-24 12:42:00,45.3,37.5,30.27,South,176,7.0,14.0,74,0.00,,---,0.00,VWS V14.01,2013-02-24 20:42:00,
2013-02-24 12:45:00,45.9,36.7,30.25,SSE,166,18.0,18.0,70,0.00,,---,0.00,VWS V14.01,2013-02-24 20:45:00,
2013-02-24 12:47:00,45.3,37.5,30.27,WNW,289,6.0,15.0,74,0.00,,---,0.00,VWS V14.01,2013-02-24 20:47:00,
2013-02-24 12:50:00,45.7,36.5,30.25,SSE,165,3.0,18.0,70,0.00,,---,0.00,VWS V14.01,2013-02-24 20:50:00,
2013-02-24 12:52:00,45.4,38.0,30.27,South,181,1.0,6.0,75,0.00,,---,0.00,VWS V14.01,2013-02-24 20:52:00,
2013-02-24 12:55:00,45.7,36.5,30.25,SSW,194,5.0,17.0,70,0.00,,---,0.00,VWS V14.01,2013-02-24 20:55:00,
2013-02-24 12:57:00,45.4,37.6,30.27,South,174,8.0,10.0,74,0.00,,---,0.00,VWS V14.01,2013-02-24 20:57:00,
2013-02-24 13:00:00,45.6,36.8,30.25,SSE,161,8.0,16.0,71,0.00,,---,0.00,VWS V14.01,2013-02-24 21:00:00,
2013-02-24 13:02:00,45.3,37.5,30.26,SSE,158,6.0,6.0,74,0.00,,---,0.00,VWS V14.01,2013-02-24 21:02:00,
2013-02-24 13:05:00,45.7,36.5,30.24,SE,139,4.0,14.0,70,0.00,,---,0.00,VWS V14.01,2013-02-24 21:05:00,
2013-02-24 13:07:00,45.3,37.5,30.26,SSE,148,2.0,6.0,74,0.00,,---,0.00,VWS V14.01,2013-02-24 21:07:00,
2013-02-24 13:10:00,45.8,36.6,30.24,SE,143,3.0,13.0,70,0.00,,---,0.00,VWS V14.01,2013-02-24 21:10:00,
2013-02-24 13:12:00,45.2,37.1,30.26,SSE,153,13.0,16.0,73,0.00,,---,0.00,VWS V14.01,2013-02-24 21:12:00,
2013-02-24 13:15:00,45.9,37.0,30.24,East,93,2.0,11.0,71,0.00,,---,0.00,VWS V14.01,2013-02-24 21:15:00,
2013-02-24 13:17:00,45.2,37.1,30.26,SSE,165,10.0,10.0,73,0.00,,---,0.00,VWS V14.01,2013-02-24 21:17:00,
2013-02-24 13:20:00,46.0,37.1,30.24,SSW,200,9.0,11.0,71,0.00,,---,0.00,VWS V14.01,2013-02-24 21:20:00,
2013-02-24 13:22:00,45.3,36.8,30.26,SSE,151,3.0,9.0,72,0.00,,---,0.00,VWS V14.01,2013-02-24 21:22:00,
2013-02-24 13:25:00,45.9,36.7,30.23,South,173,1.0,15.0,70,0.00,,---,0.00,VWS V14.01,2013-02-24 21:25:00,
2013-02-24 13:27:00,45.4,36.6,30.26,SW,235,4.0,12.0,71,0.00,,---,0.00,VWS V14.01,2013-02-24 21:27:00,
2013-02-24 13:30:00,46.1,36.9,30.23,SSE,167,6.0,10.0,70,0.00,,---,0.00,VWS V14.01,2013-02-24 21:30:00,
2013-02-24 13:32:00,45.6,36.8,30.26,SSE,156,4.0,10.0,71,0.00,,---,0.00,VWS V14.01,2013-02-24 21:32:00,
2013-02-24 13:35:00,46.2,36.6,30.23,SSW,212,9.0,11.0,69,0.00,,---,0.00,VWS V14.01,2013-02-24 21:35:00,
2013-02-24 13:37:00,45.8,37.0,30.26,SSE,162,1.0,7.0,71,0.00,,---,0.00,VWS V14.01,2013-02-24 21:37:00,
2013-02-24 13:40:00,46.3,37.1,30.23,SSE,162,6.0,12.0,70,0.00,,---,0.00,VWS V14.01,2013-02-24 21:40:00,
2013-02-24 13:42:00,45.9,36.7,30.25,SSE,160,6.0,17.0,70,0.00,,---,0.00,VWS V14.01,2013-02-24 21:42:00,
2013-02-24 13:45:00,46.3,37.1,30.22,SSE,158,6.0,13.0,70,0.00,,---,0.00,VWS V14.01,2013-02-24 21:45:00,
2013-02-24 13:47:00,45.8,36.6,30.25,South,176,4.0,18.0,70,0.00,,---,0.00,VWS V14.01,2013-02-24 21:47:00,
2013-02-24 13:50:00,46.5,37.3,30.22,WSW,243,1.0,13.0,70,0.00,,---,0.00,VWS V14.01,2013-02-24 21:50:00,
2013-02-24 13:52:00,45.7,36.8,30.25,SSE,167,7.0,8.0,71,0.00,,---,0.00,VWS V14.01,2013-02-24 21:52:00,
2013-02-24 13:55:00,46.8,37.2,30.22,South,172,10.0,10.0,69,0.00,,---,0.00,VWS V14.01,2013-02-24 21:55:00,
2013-02-24 13:57:00,45.7,36.8,30.25,South,175,16.0,16.0,71,0.00,,---,0.00,VWS V14.01,2013-02-24 21:57:00,
2013-02-24 14:00:00,47.0,37.4,30.22,SSE,159,4.0,13.0,69,0.00,,---,0.00,VWS V14.01,2013-02-24 22:00:00,
2013-02-24 14:02:00,45.7,36.5,30.25,SSW,201,10.0,13.0,70,0.00,,---,0.00,VWS V14.01,2013-02-24 22:02:00,
2013-02-24 14:05:00,46.9,37.3,30.21,SW,224,3.0,18.0,69,0.00,,---,0.00,VWS V14.01,2013-02-24 22:05:00,
2013-02-24 14:07:00,45.7,36.8,30.24,South,184,2.0,4.0,71,0.00,,---,0.00,VWS V14.01,2013-02-24 22:07:00,
2013-02-24 14:10:00,46.8,37.2,30.21,WSW,251,3.0,11.0,69,0.00,,---,0.00,VWS V14.01,2013-02-24 22:10:00,
2013-02-24 14:12:00,45.8,37.0,30.24,SSW,198,4.0,11.0,71,0.00,,---,0.00,VWS V14.01,2013-02-24 22:12:00,
2013-02-24 14:15:00,46.6,37.0,30.21,SSW,205,2.0,11.0,69,0.00,,---,0.00,VWS V14.01,2013-02-24 22:15:00,
2013-02-24 14:17:00,45.9,37.0,30.24,SSW,194,8.0,11.0,71,0.00,,---,0.00,VWS V14.01,2013-02-24 22:17:00,
2013-02-24 14:20:00,46.4,37.2,30.20,South,172,3.0,12.0,70,0.00,,---,0.00,VWS V14.01,2013-02-24 22:20:00,
2013-02-24 14:22:00,46.0,36.8,30.23,SE,129,5.0,14.0,70,0.00,,---,0.00,VWS V14.01,2013-02-24 22:22:00,
2013-02-24 14:25:00,46.3,37.1,30.20,SSW,207,3.0,14.0,70,0.00,,---,0.00,VWS V14.01,2013-02-24 22:25:00,
2013-02-24 14:27:00,46.0,37.1,30.23,SE,130,2.0,6.0,71,0.00,,---,0.00,VWS V14.01,2013-02-24 22:27:00,
2013-02-24 14:30:00,46.3,37.1,30.20,SSE,168,8.0,15.0,70,0.00,,---,0.00,VWS V14.01,2013-02-24 22:30:00,
2013-02-24 14:32:00,46.1,36.9,30.23,SSW,193,6.0,10.0,70,0.00,,---,0.00,VWS V14.01,2013-02-24 22:32:00,
2013-02-24 14:35:00,46.3,37.1,30.20,SSW,193,3.0,11.0,70,0.00,,---,0.00,VWS V14.01,2013-02-24 22:35:00,
2013-02-24 14:37:00,46.2,36.6,30.23,SSE,166,2.0,9.0,69,0.00,,---,0.00,VWS V14.01,2013-02-24 22:37:00,
2013-02-24 14:40:00,46.3,37.1,30.19,South,172,5.0,12.0,70,0.00,,---,0.00,VWS V14.01,2013-02-24 22:40:00,
2013-02-24 14:42:00,46.3,37.1,30.22,SW,235,3.0,10.0,70,0.00,,---,0.00,VWS V14.01,2013-02-24 22:42:00,
2013-02-24 14:45:00,46.4,36.8,30.19,SSW,208,3.0,12.0,69,0.00,,---,0.00,VWS V14.01,2013-02-24 22:45:00,
2013-02-24 14:47:00,46.4,37.2,30.22,SSE,148,4.0,10.0,70,0.00,,---,0.00,VWS V14.01,2013-02-24 22:47:00,
2013-02-24 14:50:00,46.4,36.8,30.19,South,182,11.0,17.0,69,0.00,,---,0.00,VWS V14.01,2013-02-24 22:50:00,
2013-02-24 14:52:00,46.5,37.3,30.22,SW,215,1.0,3.0,70,0.00,,---,0.00,VWS V14.01,2013-02-24 22:52:00,
2013-02-24 14:55:00,46.3,37.1,30.19,South,185,11.0,12.0,70,0.00,,---,0.00,VWS V14.01,2013-02-24 22:55:00,
2013-02-24 14:56:00,46.8,37.2,30.22,SW,214,3.0,11.0,69,0.00,,---,0.00,VWS V14.01,2013-02-24 22:56:00,
2013-02-24 15:00:00,46.3,37.1,30.18,SSE,153,5.0,12.0,70,0.00,,---,0.00,VWS V14.01,2013-02-24 23:00:00,
2013-02-24 15:01:00,47.0,37.0,30.22,SSW,202,6.0,11.0,68,0.00,,---,0.00,VWS V14.01,2013-02-24 23:01:00,
2013-02-24 15:05:00,46.2,37.0,30.18,SSW,205,1.0,12.0,70,0.00,,---,0.00,VWS V14.01,2013-02-24 23:05:00,
2013-02-24 15:06:00,46.9,37.3,30.21,SE,130,4.0,11.0,69,0.00,,---,0.00,VWS V14.01,2013-02-24 23:06:00,
2013-02-24 15:10:00,46.3,37.1,30.18,SSE,164,2.0,9.0,70,0.00,,---,0.00,VWS V14.01,2013-02-24 23:10:00,
2013-02-24 15:11:00,46.8,37.2,30.21,West,270,3.0,3.0,69,0.00,,---,0.00,VWS V14.01,2013-02-24 23:11:00,
2013-02-24 15:15:00,46.2,37.0,30.18,SSE,157,7.0,15.0,70,0.00,,---,0.00,VWS V14.01,2013-02-24 23:15:00,
2013-02-24 15:16:00,46.6,37.0,30.21,South,181,8.0,12.0,69,0.00,,---,0.00,VWS V14.01,2013-02-24 23:16:00,
2013-02-24 15:20:00,46.2,37.0,30.18,SE,143,5.0,13.0,70,0.00,,---,0.00,VWS V14.01,2013-02-24 23:20:00,
2013-02-24 15:21:00,46.4,37.2,30.20,SE,146,3.0,4.0,70,0.00,,---,0.00,VWS V14.01,2013-02-24 23:21:00,
2013-02-24 15:25:00,46.2,37.0,30.17,South,172,2.0,9.0,70,0.00,,---,0.00,VWS V14.01,2013-02-24 23:25:00,
2013-02-24 15:26:00,46.3,37.1,30.20,SSE,160,10.0,10.0,70,0.00,,---,0.00,VWS V14.01,2013-02-24 23:26:00,
2013-02-24 15:30:00,46.2,37.0,30.17,WSW,242,0.0,11.0,70,0.00,,---,0.00,VWS V14.01,2013-02-24 23:30:00,
2013-02-24 15:31:00,46.3,37.1,30.20,SSW,198,4.0,9.0,70,0.00,,---,0.00,VWS V14.01,2013-02-24 23:31:00,
2013-02-24 15:35:00,46.2,37.3,30.17,SSW,195,7.0,13.0,71,0.00,,---,0.00,VWS V14.01,2013-02-24 23:35:00,
2013-02-24 15:36:00,46.3,37.1,30.20,South,171,3.0,7.0,70,0.00,,---,0.00,VWS V14.01,2013-02-24 23:36:00,
2013-02-24 15:40:00,46.2,37.0,30.17,SSE,162,6.0,13.0,70,0.00,,---,0.00,VWS V14.01,2013-02-24 23:40:00,
2013-02-24 15:41:00,46.3,37.1,30.20,South,172,5.0,6.0,70,0.00,,---,0.00,VWS V14.01,2013-02-24 23:41:00,
2013-02-24 15:45:00,46.3,37.1,30.16,South,182,12.0,12.0,70,0.00,,---,0.00,VWS V14.01,2013-02-24 23:45:00,
2013-02-24 15:46:00,46.4,36.8,30.19,SW,217,4.0,11.0,69,0.00,,---,0.00,VWS V14.01,2013-02-24 23:46:00,
2013-02-24 15:50:00,46.3,37.1,30.16,South,175,10.0,12.0,70,0.00,,---,0.00,VWS V14.01,2013-02-24 23:50:00,
2013-02-24 15:51:00,46.4,36.8,30.19,South,187,7.0,11.0,69,0.00,,---,0.00,VWS V14.01,2013-02-24 23:51:00,
2013-02-24 15:55:00,46.3,37.1,30.16,SE,145,11.0,11.0,70,0.00,,---,0.00,VWS V14.01,2013-02-24 23:55:00,
2013-02-24 15:56:00,46.3,36.7,30.19,SE,139,8.0,12.0,69,0.00,,---,0.00,VWS V14.01,2013-02-24 23:56:00,
2013-02-24 16:00:00,46.3,37.4,30.15,SSE,155,4.0,12.0,71,0.00,,---,0.00,VWS V14.01,2013-02-25 00:00:00,
2013-02-24 16:01:00,46.3,37.1,30.19,SSE,150,4.0,11.0,70,0.00,,---,0.00,VWS V14.01,2013-02-25 00:01:00,
2013-02-24 16:05:00,46.3,37.4,30.15,South,172,9.0,11.0,71,0.00,,---,0.00,VWS V14.01,2013-02-25 00:05:00,
2013-02-24 16:06:00,46.3,37.1,30.18,SW,221,4.0,6.0,70,0.00,,---,0.00,VWS V14.01,2013-02-25 00:06:00,
2013-02-24 16:10:00,46.3,37.4,30.15,SSW,193,6.0,11.0,71,0.00,,---,0.00,VWS V14.01,2013-02-25 00:10:00,
2013-02-24 16:11:00,46.2,37.0,30.18,SE,136,2.0,6.0,70,0.00,,---,0.00,VWS V14.01,2013-02-25 00:11:00,
2013-02-24 16:15:00,46.3,37.1,30.15,South,181,10.0,14.0,70,0.00,,---,0.00,VWS V14.01,2013-02-25 00:15:00,
2013-02-24 16:16:00,46.2,37.0,30.18,SSW,210,7.0,13.0,70,0.00,,---,0.00,VWS V14.01,2013-02-25 00:16:00,
2013-02-24 16:20:00,46.3,37.1,30.15,SSE,168,4.0,13.0,70,0.00,,---,0.00,VWS V14.01,2013-02-25 00:20:00,
2013-02-24 16:21:00,46.2,37.0,30.17,South,180,5.0,9.0,70,0.00,,---,0.00,VWS V14.01,2013-02-25 00:21:00,
2013-02-24 16:25:00,46.3,37.4,30.15,South,171,4.0,12.0,71,0.00,,---,0.00,VWS V14.01,2013-02-25 00:25:00,
2013-02-24 16:26:00,46.2,37.3,30.17,SSE,164,3.0,4.0,71,0.00,,---,0.00,VWS V14.01,2013-02-25 00:26:00,
2013-02-24 16:30:00,46.2,37.0,30.14,SSW,196,4.0,12.0,70,0.00,,---,0.00,VWS V14.01,2013-02-25 00:30:00,
2013-02-24 16:31:00,46.2,37.3,30.17,South,171,4.0,5.0,71,0.00,,---,0.00,VWS V14.01,2013-02-25 00:31:00,
2013-02-24 16:35:00,46.2,37.3,30.14,SE,143,2.0,9.0,71,0.00,,---,0.00,VWS V14.01,2013-02-25 00:35:00,
2013-02-24 16:36:00,46.2,37.0,30.17,South,171,5.0,7.0,70,0.00,,---,0.00,VWS V14.01,2013-02-25 00:36:00,
2013-02-24 16:40:00,46.1,37.2,30.14,SSE,147,6.0,7.0,71,0.00,,---,0.00,VWS V14.01,2013-02-25 00:40:00,
2013-02-24 16:41:00,46.2,37.0,30.17,South,174,8.0,8.0,70,0.00,,---,0.00,VWS V14.01,2013-02-25 00:41:00,
2013-02-24 16:45:00,46.1,37.2,30.13,SE,143,1.0,9.0,71,0.00,,---,0.00,VWS V14.01,2013-02-25 00:45:00,
2013-02-24 16:46:00,46.2,37.0,30.17,SSE,159,5.0,12.0,70,0.00,,---,0.00,VWS V14.01,2013-02-25 00:46:00,
2013-02-24 16:50:00,46.1,36.9,30.13,SSE,163,11.0,11.0,70,0.00,,---,0.00,VWS V14.01,2013-02-25 00:50:00,
2013-02-24 16:51:00,46.3,37.1,30.16,South,185,4.0,10.0,70,0.00,,---,0.00,VWS V14.01,2013-02-25 00:51:00,
2013-02-24 16:55:00,46.2,37.0,30.13,South,179,1.0,12.0,70,0.00,,---,0.00,VWS V14.01,2013-02-25 00:55:00,
2013-02-24 16:56:00,46.3,37.4,30.15,ESE,121,8.0,11.0,71,0.00,,---,0.00,VWS V14.01,2013-02-25 00:56:00,
2013-02-24 17:00:00,46.2,37.0,30.12,SSE,158,3.0,10.0,70,0.00,,---,0.00,VWS V14.01,2013-02-25 01:00:00,
2013-02-24 17:01:00,46.3,37.4,30.15,South,171,6.0,9.0,71,0.00,,---,0.00,VWS V14.01,2013-02-25 01:01:00,
2013-02-24 17:05:00,46.2,37.0,30.12,SSW,213,1.0,12.0,70,0.00,,---,0.00,VWS V14.01,2013-02-25 01:05:00,
2013-02-24 17:06:00,46.3,37.4,30.15,SSE,165,1.0,9.0,71,0.00,,---,0.00,VWS V14.01,2013-02-25 01:06:00,
2013-02-24 17:10:00,46.2,36.6,30.12,SE,143,4.0,11.0,69,0.00,,---,0.00,VWS V14.01,2013-02-25 01:10:00,
2013-02-24 17:11:00,46.3,37.4,30.15,South,173,8.0,9.0,71,0.00,,---,0.00,VWS V14.01,2013-02-25 01:11:00,
2013-02-24 17:15:00,46.3,36.7,30.12,SSE,165,4.0,17.0,69,0.00,,---,0.00,VWS V14.01,2013-02-25 01:15:00,
2013-02-24 17:16:00,46.3,37.1,30.15,SSE,159,5.0,11.0,70,0.00,,---,0.00,VWS V14.01,2013-02-25 01:16:00,
2013-02-24 17:20:00,46.3,36.3,30.11,South,169,6.0,12.0,68,0.00,,---,0.00,VWS V14.01,2013-02-25 01:20:00,
2013-02-24 17:21:00,46.3,37.1,30.15,SSE,154,6.0,12.0,70,0.00,,---,0.00,VWS V14.01,2013-02-25 01:21:00,
2013-02-24 17:25:00,46.4,36.4,30.11,SSW,210,1.0,14.0,68,0.00,,---,0.00,VWS V14.01,2013-02-25 01:25:00,
2013-02-24 17:26:00,46.3,37.4,30.15,South,182,4.0,5.0,71,0.00,,---,0.00,VWS V14.01,2013-02-25 01:26:00,
2013-02-24 17:30:00,46.3,36.3,30.11,SE,129,6.0,11.0,68,0.00,,---,0.00,VWS V14.01,2013-02-25 01:30:00,
2013-02-24 17:31:00,46.2,37.3,30.14,South,169,7.0,9.0,71,0.00,,---,0.00,VWS V14.01,2013-02-25 01:31:00,
2013-02-24 17:35:00,46.4,36.4,30.11,South,173,11.0,16.0,68,0.00,,---,0.00,VWS V14.01,2013-02-25 01:35:00,
2013-02-24 17:36:00,46.2,37.3,30.14,SSE,155,2.0,4.0,71,0.00,,---,0.00,VWS V14.01,2013-02-25 01:36:00,
2013-02-24 17:40:00,46.4,36.4,30.11,South,184,6.0,11.0,68,0.00,,---,0.00,VWS V14.01,2013-02-25 01:40:00,
2013-02-24 17:41:00,46.1,37.2,30.14,South,184,2.0,6.0,71,0.00,,---,0.00,VWS V14.01,2013-02-25 01:41:00,
2013-02-24 17:45:00,46.4,36.0,30.11,SSE,152,3.0,12.0,67,0.00,,---,0.00,VWS V14.01,2013-02-25 01:45:00,
2013-02-24 17:46:00,46.1,37.2,30.13,South,184,0.0,1.0,71,0.00,,---,0.00,VWS V14.01,2013-02-25 01:46:00,
2013-02-24 17:50:00,46.3,36.0,30.10,East,89,1.0,15.0,67,0.00,,---,0.00,VWS V14.01,2013-02-25 01:50:00,
2013-02-24 17:51:00,46.1,36.9,30.13,South,181,5.0,11.0,70,0.00,,---,0.00,VWS V14.01,2013-02-25 01:51:00,
2013-02-24 17:55:00,46.3,36.0,30.10,East,95,3.0,12.0,67,0.00,,---,0.00,VWS V14.01,2013-02-25 01:55:00,
2013-02-24 17:56:00,46.2,37.0,30.13,SSE,165,2.0,6.0,70,0.00,,---,0.00,VWS V14.01,2013-02-25 01:56:00,
2013-02-24 18:00:00,46.3,35.6,30.10,SSW,201,3.0,12.0,66,0.00,,---,0.00,VWS V14.01,2013-02-25 02:00:00,
2013-02-24 18:01:00,46.2,37.0,30.12,SSW,193,5.0,7.0,70,0.00,,---,0.00,VWS V14.01,2013-02-25 02:01:00,
2013-02-24 18:05:00,46.3,35.6,30.10,South,172,5.0,12.0,66,0.00,,---,0.00,VWS V14.01,2013-02-25 02:05:00,
2013-02-24 18:06:00,46.2,37.0,30.12,WSW,238,2.0,2.0,70,0.00,,---,0.00,VWS V14.01,2013-02-25 02:06:00,
2013-02-24 18:10:00,46.3,35.6,30.09,SSW,212,5.0,11.0,66,0.00,,---,0.00,VWS V14.01,2013-02-25 02:10:00,
2013-02-24 18:11:00,46.3,36.7,30.12,SE,138,7.0,7.0,69,0.00,,---,0.00,VWS V14.01,2013-02-25 02:11:00,
2013-02-24 18:15:00,46.3,35.6,30.09,South,174,5.0,14.0,66,0.00,,---,0.00,VWS V14.01,2013-02-25 02:15:00,
2013-02-24 18:16:00,46.3,36.7,30.11,SE,144,3.0,8.0,69,0.00,,---,0.00,VWS V14.01,2013-02-25 02:16:00,
2013-02-24 18:20:00,46.3,35.6,30.09,SSW,198,4.0,15.0,66,0.00,,---,0.00,VWS V14.01,2013-02-25 02:20:00,
2013-02-24 18:21:00,46.3,36.3,30.11,SSE,147,5.0,6.0,68,0.00,,---,0.00,VWS V14.01,2013-02-25 02:21:00,
2013-02-24 18:25:00,46.2,35.5,30.09,South,181,4.0,9.0,66,0.00,,---,0.00,VWS V14.01,2013-02-25 02:25:00,
2013-02-24 18:26:00,46.3,36.3,30.11,South,184,4.0,4.0,68,0.00,,---,0.00,VWS V14.01,2013-02-25 02:26:00,
2013-02-24 18:30:00,46.3,35.6,30.09,SE,136,4.0,15.0,66,0.00,,---,0.00,VWS V14.01,2013-02-25 02:30:00,
2013-02-24 18:31:00,46.4,36.4,30.11,SSE,168,8.0,10.0,68,0.00,,---,0.00,VWS V14.01,2013-02-25 02:31:00,
2013-02-24 18:35:00,46.2,35.5,30.08,South,179,8.0,9.0,66,0.00,,---,0.00,VWS V14.01,2013-02-25 02:35:00,
2013-02-24 18:36:00,46.4,36.4,30.11,South,184,3.0,11.0,68,0.00,,---,0.00,VWS V14.01,2013-02-25 02:36:00,
2013-02-24 18:40:00,46.1,35.4,30.08,South,178,6.0,12.0,66,0.00,,---,0.00,VWS V14.01,2013-02-25 02:40:00,
2013-02-24 18:41:00,46.4,36.4,30.11,South,174,5.0,6.0,68,0.00,,---,0.00,VWS V14.01,2013-02-25 02:41:00,
2013-02-24 18:45:00,46.1,35.4,30.08,SSW,193,5.0,14.0,66,0.00,,---,0.00,VWS V14.01,2013-02-25 02:45:00,
2013-02-24 18:46:00,46.3,36.0,30.11,SSE,152,10.0,10.0,67,0.00,,---,0.00,VWS V14.01,2013-02-25 02:46:00,
2013-02-24 18:50:00,46.1,35.4,30.07,SE,141,2.0,11.0,66,0.00,,---,0.00,VWS V14.01,2013-02-25 02:50:00,
2013-02-24 18:51:00,46.4,36.0,30.10,ESE,121,5.0,8.0,67,0.00,,---,0.00,VWS V14.01,2013-02-25 02:51:00,
2013-02-24 18:55:00,46.1,35.4,30.07,SW,228,2.0,9.0,66,0.00,,---,0.00,VWS V14.01,2013-02-25 02:55:00,
2013-02-24 18:56:00,46.3,36.0,30.10,South,183,7.0,8.0,67,0.00,,---,0.00,VWS V14.01,2013-02-25 02:56:00,
2013-02-24 19:00:00,46.1,35.4,30.06,SW,226,5.0,8.0,66,0.00,,---,0.00,VWS V14.01,2013-02-25 03:00:00,
2013-02-24 19:01:00,46.3,35.6,30.10,South,178,9.0,9.0,66,0.00,,---,0.00,VWS V14.01,2013-02-25 03:01:00,
2013-02-24 19:05:00,46.1,35.4,30.06,SW,233,2.0,9.0,66,0.00,,---,0.00,VWS V14.01,2013-02-25 03:05:00,
2013-02-24 19:06:00,46.3,35.6,30.09,SSE,164,5.0,5.0,66,0.00,,---,0.00,VWS V14.01,2013-02-25 03:06:00,
2013-02-24 19:10:00,46.1,35.0,30.05,SW,224,5.0,9.0,65,0.00,,---,0.00,VWS V14.01,2013-02-25 03:10:00,
2013-02-24 19:11:00,46.3,35.6,30.09,SSW,205,3.0,7.0,66,0.00,,---,0.00,VWS V14.01,2013-02-25 03:11:00,
2013-02-24 19:15:00,46.1,35.0,30.05,SSE,153,2.0,13.0,65,0.00,,---,0.00,VWS V14.01,2013-02-25 03:15:00,
2013-02-24 19:16:00,46.3,35.6,30.09,SSE,168,6.0,7.0,66,0.00,,---,0.00,VWS V14.01,2013-02-25 03:16:00,
2013-02-24 19:20:00,46.1,35.0,30.05,SSW,205,2.0,11.0,65,0.00,,---,0.00,VWS V14.01,2013-02-25 03:20:00,
2013-02-24 19:21:00,46.3,35.6,30.09,South,180,4.0,5.0,66,0.00,,---,0.00,VWS V14.01,2013-02-25 03:21:00,
2013-02-24 19:25:00,46.1,35.0,30.05,East,94,4.0,7.0,65,0.00,,---,0.00,VWS V14.01,2013-02-25 03:25:00,
2013-02-24 19:26:00,46.2,35.5,30.09,SSE,156,2.0,4.0,66,0.00,,---,0.00,VWS V14.01,2013-02-25 03:26:00,
2013-02-24 19:30:00,46.1,35.0,30.05,South,175,6.0,10.0,65,0.00,,---,0.00,VWS V14.01,2013-02-25 03:30:00,
2013-02-24 19:31:00,46.3,35.6,30.08,South,169,9.0,9.0,66,0.00,,---,0.00,VWS V14.01,2013-02-25 03:31:00,
2013-02-24 19:35:00,46.1,35.0,30.05,SW,219,5.0,15.0,65,0.00,,---,0.00,VWS V14.01,2013-02-25 03:35:00,
2013-02-24 19:36:00,46.2,35.5,30.08,SE,135,8.0,8.0,66,0.00,,---,0.00,VWS V14.01,2013-02-25 03:36:00,
2013-02-24 19:40:00,46.0,34.9,30.04,SSE,167,1.0,9.0,65,0.00,,---,0.00,VWS V14.01,2013-02-25 03:40:00,
2013-02-24 19:41:00,46.1,35.4,30.08,South,174,3.0,8.0,66,0.00,,---,0.00,VWS V14.01,2013-02-25 03:41:00,
2013-02-24 19:45:00,46.0,34.9,30.04,SW,219,5.0,13.0,65,0.00,,---,0.00,VWS V14.01,2013-02-25 03:45:00,
2013-02-24 19:46:00,46.1,35.4,30.07,SSE,153,10.0,10.0,66,0.00,,---,0.00,VWS V14.01,2013-02-25 03:46:00,
2013-02-24 19:50:00,46.0,34.9,30.05,WSW,239,3.0,12.0,65,0.00,,---,0.00,VWS V14.01,2013-02-25 03:50:00,
2013-02-24 19:51:00,46.1,35.4,30.07,SE,140,4.0,9.0,66,0.00,,---,0.00,VWS V14.01,2013-02-25 03:51:00,
2013-02-24 19:55:00,46.0,34.5,30.04,ESE,123,4.0,10.0,64,0.00,,---,0.00,VWS V14.01,2013-02-25 03:55:00,
2013-02-24 19:56:00,46.1,35.8,30.07,SE,130,5.0,5.0,67,0.00,,---,0.00,VWS V14.01,2013-02-25 03:56:00,
2013-02-24 20:00:00,46.0,34.9,30.04,West,259,0.0,8.0,65,0.00,,---,0.00,VWS V14.01,2013-02-25 04:00:00,
2013-02-24 20:01:00,46.1,35.4,30.06,South,174,6.0,8.0,66,0.00,,---,0.00,VWS V14.01,2013-02-25 04:01:00,
2013-02-24 20:05:00,45.9,34.8,30.04,SSE,162,7.0,13.0,65,0.00,,---,0.00,VWS V14.01,2013-02-25 04:05:00,
2013-02-24 20:06:00,46.1,35.4,30.06,SE,146,4.0,4.0,66,0.00,,---,0.00,VWS V14.01,2013-02-25 04:06:00,
2013-02-24 20:10:00,45.9,35.2,30.04,SW,219,2.0,8.0,66,0.00,,---,0.00,VWS V14.01,2013-02-25 04:10:00,
2013-02-24 20:11:00,46.1,35.0,30.05,SE,135,3.0,5.0,65,0.00,,---,0.00,VWS V14.01,2013-02-25 04:11:00,
2013-02-24 20:15:00,45.9,35.2,30.03,South,186,3.0,8.0,66,0.00,,---,0.00,VWS V14.01,2013-02-25 04:15:00,
2013-02-24 20:16:00,46.1,35.0,30.05,SSE,155,4.0,4.0,65,0.00,,---,0.00,VWS V14.01,2013-02-25 04:16:00,
2013-02-24 20:20:00,45.8,35.1,30.03,SE,131,5.0,10.0,66,0.00,,---,0.00,VWS V14.01,2013-02-25 04:20:00,
2013-02-24 20:21:00,46.1,35.0,30.05,SSW,205,7.0,7.0,65,0.00,,---,0.00,VWS V14.01,2013-02-25 04:21:00,
2013-02-24 20:25:00,45.9,35.2,30.03,SE,132,7.0,11.0,66,0.00,,---,0.00,VWS V14.01,2013-02-25 04:25:00,
2013-02-24 20:26:00,46.1,35.0,30.05,SSE,158,3.0,4.0,65,0.00,,---,0.00,VWS V14.01,2013-02-25 04:26:00,
2013-02-24 20:30:00,46.0,34.9,30.02,SSE,160,9.0,13.0,65,0.00,,---,0.00,VWS V14.01,2013-02-25 04:30:00,
2013-02-24 20:31:00,46.1,35.0,30.05,South,169,3.0,6.0,65,0.00,,---,0.00,VWS V14.01,2013-02-25 04:31:00,
2013-02-24 20:35:00,46.1,35.0,30.02,South,174,2.0,14.0,65,0.00,,---,0.00,VWS V14.01,2013-02-25 04:35:00,
2013-02-24 20:36:00,46.1,35.0,30.05,SSE,160,2.0,6.0,65,0.00,,---,0.00,VWS V14.01,2013-02-25 04:36:00,
2013-02-24 20:40:00,46.1,35.0,30.02,SE,126,4.0,15.0,65,0.00,,---,0.00,VWS V14.01,2013-02-25 04:40:00,
2013-02-24 20:41:00,46.0,34.9,30.04,ESE,117,2.0,2.0,65,0.00,,---,0.00,VWS V14.01,2013-02-25 04:41:00,
2013-02-24 20:45:00,46.1,35.4,30.02,SSW,192,14.0,16.0,66,0.00,,---,0.00,VWS V14.01,2013-02-25 04:45:00,
2013-02-24 20:46:00,46.0,34.9,30.04,South,177,7.0,9.0,65,0.00,,---,0.00,VWS V14.01,2013-02-25 04:46:00,
2013-02-24 20:50:00,45.9,36.0,30.02,SSW,198,16.0,16.0,68,0.00,,---,0.00,VWS V14.01,2013-02-25 04:50:00,
2013-02-24 20:51:00,46.0,34.9,30.05,South,186,4.0,7.0,65,0.00,,---,0.00,VWS V14.01,2013-02-25 04:51:00,
2013-02-24 20:55:00,45.6,36.0,30.02,SSE,150,3.0,16.0,69,0.00,,---,0.00,VWS V14.01,2013-02-25 04:55:00,
2013-02-24 20:56:00,46.0,34.9,30.04,SSW,195,2.0,4.0,65,0.00,,---,0.00,VWS V14.01,2013-02-25 04:56:00,
2013-02-24 21:00:00,46.0,34.9,30.04,SSE,161,0.0,8.0,65,0.00,,---,0.00,VWS V14.01,2013-02-25 05:00:00,
2013-02-24 21:05:00,46.0,34.9,30.04,SSW,208,2.0,13.0,65,0.00,,---,0.00,VWS V14.01,2013-02-25 05:05:00,
2013-02-24 21:10:00,45.9,35.2,30.04,SSE,158,5.0,8.0,66,0.00,,---,0.00,VWS V14.01,2013-02-25 05:10:00,
2013-02-24 21:15:00,45.9,35.2,30.03,SSW,202,1.0,8.0,66,0.00,,---,0.00,VWS V14.01,2013-02-25 05:15:00,
2013-02-24 21:20:00,45.8,35.5,30.03,SW,215,2.0,10.0,67,0.00,,---,0.00,VWS V14.01,2013-02-25 05:20:00,
2013-02-24 21:25:00,45.9,35.2,30.03,SSE,164,10.0,11.0,66,0.00,,---,0.00,VWS V14.01,2013-02-25 05:25:00,
2013-02-24 21:30:00,46.0,34.9,30.02,South,179,5.0,13.0,65,0.00,,---,0.00,VWS V14.01,2013-02-25 05:30:00,
2013-02-24 21:35:00,46.1,35.0,30.02,South,174,4.0,14.0,65,0.00,,---,0.00,VWS V14.01,2013-02-25 05:35:00,
2013-02-24 21:40:00,46.1,35.0,30.02,WNW,285,3.0,15.0,65,0.00,,---,0.00,VWS V14.01,2013-02-25 05:40:00,
2013-02-24 21:45:00,46.1,35.4,30.02,East,94,8.0,16.0,66,0.00,,---,0.00,VWS V14.01,2013-02-25 05:45:00,
2013-02-24 21:50:00,45.9,35.6,30.02,South,175,7.0,15.0,67,0.00,,---,0.00,VWS V14.01,2013-02-25 05:50:00,
2013-02-24 21:55:00,45.7,36.1,30.02,ESE,117,2.0,16.0,69,0.00,,---,0.00,VWS V14.01,2013-02-25 05:55:00,
2013-02-24 22:00:00,45.5,35.9,30.01,South,175,15.0,15.0,69,0.00,,---,0.00,VWS V14.01,2013-02-25 06:00:00,
2013-02-24 22:05:00,45.5,35.9,30.00,South,169,6.0,10.0,69,0.00,,---,0.00,VWS V14.01,2013-02-25 06:05:00,
2013-02-24 22:10:00,45.5,35.6,30.00,South,170,6.0,18.0,68,0.00,,---,0.00,VWS V14.01,2013-02-25 06:10:00,
2013-02-24 22:15:00,45.5,35.6,30.00,SSW,211,6.0,15.0,68,0.00,,---,0.00,VWS V14.01,2013-02-25 06:15:00,
2013-02-24 22:20:00,45.5,35.9,30.00,ENE,65,7.0,19.0,69,0.00,,---,0.00,VWS V14.01,2013-02-25 06:20:00,
2013-02-24 22:25:00,45.5,35.9,30.00,South,188,7.0,16.0,69,0.00,,---,0.00,VWS V14.01,2013-02-25 06:25:00,
2013-02-24 22:30:00,45.5,35.6,29.99,SSE,165,9.0,20.0,68,0.00,,---,0.00,VWS V14.01,2013-02-25 06:30:00,
2013-02-24 22:35:00,45.6,35.7,29.99,SSW,210,7.0,16.0,68,0.00,,---,0.00,VWS V14.01,2013-02-25 06:35:00,
2013-02-24 22:40:00,45.7,35.8,29.99,SE,129,8.0,13.0,68,0.00,,---,0.00,VWS V14.01,2013-02-25 06:40:00,
2013-02-24 22:45:00,45.7,35.8,29.98,SSW,205,4.0,16.0,68,0.00,,---,0.00,VWS V14.01,2013-02-25 06:45:00,
2013-02-24 22:50:00,45.6,35.3,29.98,SSW,198,4.0,16.0,67,0.00,,---,0.00,VWS V14.01,2013-02-25 06:50:00,
2013-02-24 22:55:00,45.7,35.0,29.97,SSW,199,3.0,14.0,66,0.00,,---,0.00,VWS V14.01,2013-02-25 06:55:00,
2013-02-24 23:00:00,45.9,34.8,29.97,SSW,209,3.0,10.0,65,0.00,,---,0.00,VWS V14.01,2013-02-25 07:00:00,
2013-02-24 23:05:00,46.0,34.9,29.97,ESE,115,6.0,8.0,65,0.00,,---,0.00,VWS V14.01,2013-02-25 07:05:00,
2013-02-24 23:10:00,46.1,34.6,29.96,SSE,154,1.0,12.0,64,0.00,,---,0.00,VWS V14.01,2013-02-25 07:10:00,
2013-02-24 23:15:00,46.1,34.6,29.96,SSE,155,1.0,6.0,64,0.00,,---,0.00,VWS V14.01,2013-02-25 07:15:00,
2013-02-24 23:20:00,46.2,34.3,29.95,SSE,160,10.0,12.0,63,0.00,,---,0.00,VWS V14.01,2013-02-25 07:20:00,
2013-02-24 23:25:00,46.2,34.3,29.95,SSE,163,3.0,9.0,63,0.00,,---,0.00,VWS V14.01,2013-02-25 07:25:00,
2013-02-24 23:30:00,46.2,34.3,29.95,South,170,7.0,11.0,63,0.00,,---,0.00,VWS V14.01,2013-02-25 07:30:00,
2013-02-24 23:35:00,46.1,35.0,29.95,SSW,194,11.0,20.0,65,0.00,,---,0.00,VWS V14.01,2013-02-25 07:35:00,
2013-02-24 23:40:00,45.4,35.8,29.95,South,179,6.0,19.0,69,0.00,,---,0.00,VWS V14.01,2013-02-25 07:40:00,
2013-02-24 23:45:00,44.8,36.3,29.95,SSE,165,9.0,18.0,72,0.00,,---,0.00,VWS V14.01,2013-02-25 07:45:00,
2013-02-24 23:50:00,44.2,36.5,29.95,SW,214,4.0,15.0,74,0.00,,---,0.00,VWS V14.01,2013-02-25 07:50:00,
2013-02-24 23:55:00,43.9,36.5,29.94,SSE,155,5.0,20.0,75,0.00,,---,0.00,VWS V14.01,2013-02-25 07:55:00,